createdAt,value
2018-12-04T00:01:02.257Z,1.50
2018-12-04T00:03:50.426Z,1.30
2018-12-04T00:06:19.416Z,1.30
2018-12-04T00:08:48.157Z,0.93
2018-12-04T00:11:17.641Z,1.40
2018-12-04T00:14:05.819Z,1.03
2018-12-04T00:16:35.406Z,1.60
2018-12-04T00:19:04.437Z,1.40
2018-12-04T00:21:33.429Z,1.30
2018-12-04T00:24:21.892Z,0.80
2018-12-04T00:26:50.838Z,1.20
2018-12-04T00:29:19.909Z,0.93
2018-12-04T00:31:49.136Z,1.33
2018-12-04T00:34:18.089Z,1.70
2018-12-04T00:36:46.801Z,1.33
2018-12-04T00:39:15.784Z,1.47
2018-12-04T00:41:44.845Z,1.20
2018-12-04T00:44:13.805Z,1.17
2018-12-04T00:46:42.853Z,1.03
2018-12-04T00:49:11.580Z,1.07
2018-12-04T00:51:40.291Z,1.43
2018-12-04T00:54:28.504Z,1.00
2018-12-04T00:56:57.220Z,1.10
2018-12-04T00:59:26.160Z,1.23
2018-12-04T01:01:57.029Z,0.90
2018-12-04T01:04:25.745Z,0.93
2018-12-04T01:06:54.536Z,1.10
2018-12-04T01:09:23.749Z,1.03
2018-12-04T01:11:52.697Z,0.97
2018-12-04T01:14:21.488Z,1.23
2018-12-04T01:16:50.256Z,0.70
2018-12-04T01:19:19.596Z,0.70
2018-12-04T01:21:51.381Z,0.90
2018-12-04T01:24:20.353Z,1.20
2018-12-04T01:26:49.057Z,1.20
2018-12-04T01:29:18.000Z,1.10
2018-12-04T01:31:46.956Z,0.83
2018-12-04T01:34:15.661Z,0.77
2018-12-04T01:36:44.604Z,0.70
2018-12-04T01:39:13.329Z,0.80
2018-12-04T01:41:42.132Z,1.20
2018-12-04T01:44:30.306Z,0.67
2018-12-04T01:46:59.493Z,0.90
2018-12-04T01:49:28.441Z,0.70
2018-12-04T01:52:16.606Z,1.27
2018-12-04T01:54:45.561Z,0.77
2018-12-04T01:57:14.493Z,0.97
2018-12-04T01:59:43.777Z,1.00
2018-12-04T02:02:31.937Z,0.83
2018-12-04T02:05:00.660Z,0.90
2018-12-04T02:07:29.381Z,0.80
2018-12-04T02:09:58.347Z,1.00
2018-12-04T02:12:46.528Z,0.70
2018-12-04T02:15:15.488Z,0.70
2018-12-04T02:17:44.688Z,0.70
2018-12-04T02:20:13.708Z,0.77
2018-12-04T02:23:01.861Z,0.80
2018-12-04T02:25:30.686Z,0.97
2018-12-04T02:27:59.708Z,1.30
2018-12-04T02:30:28.797Z,1.17
2018-12-04T02:33:17.218Z,0.90
2018-12-04T02:35:45.913Z,1.10
2018-12-04T02:38:14.858Z,0.87
2018-12-04T02:40:43.572Z,0.80
2018-12-04T02:43:14.104Z,1.03
2018-12-04T02:45:43.217Z,0.77
2018-12-04T02:48:11.930Z,1.00
2018-12-04T02:50:41.145Z,0.90
2018-12-04T02:53:29.559Z,1.37
2018-12-04T02:55:58.519Z,1.23
2018-12-04T02:58:27.439Z,1.00
2018-12-04T03:00:56.405Z,1.10
2018-12-04T03:03:44.597Z,1.30
2018-12-04T03:06:13.373Z,0.90
2018-12-04T03:08:42.122Z,1.10
2018-12-04T03:11:11.649Z,1.13
2018-12-04T03:13:59.820Z,1.43
2018-12-04T03:16:29.043Z,1.10
2018-12-04T03:18:58.126Z,1.27
2018-12-04T03:21:27.375Z,1.20
2018-12-04T03:24:15.814Z,1.40
2018-12-04T03:26:51.686Z,1.00
2018-12-04T03:29:20.925Z,1.20
2018-12-04T03:31:49.882Z,1.10
2018-12-04T03:34:38.110Z,1.00
2018-12-04T03:37:07.089Z,0.97
2018-12-04T03:39:36.259Z,0.60
2018-12-04T03:42:05.087Z,0.90
2018-12-04T03:44:53.304Z,0.73
2018-12-04T03:47:22.043Z,0.80
2018-12-04T03:49:50.996Z,0.90
2018-12-04T03:52:19.715Z,0.80
2018-12-04T03:57:20.790Z,0.67
2018-12-04T03:59:50.057Z,0.50
2018-12-04T04:02:18.892Z,0.70
2018-12-04T04:05:07.162Z,0.40
2018-12-04T04:07:36.456Z,0.43
2018-12-04T04:10:05.588Z,0.50
2018-12-04T04:12:34.310Z,0.50
2018-12-04T04:15:22.477Z,0.30
2018-12-04T04:17:51.436Z,0.40
2018-12-04T04:20:20.544Z,0.40
2018-12-04T04:22:49.533Z,0.30
2018-12-04T04:25:18.501Z,0.40
2018-12-04T04:27:47.429Z,0.40
2018-12-04T04:30:16.213Z,0.40
2018-12-04T04:32:45.181Z,0.50
2018-12-04T04:35:13.889Z,0.40
2018-12-04T04:37:42.590Z,0.23
2018-12-04T04:40:11.579Z,0.30
2018-12-04T04:42:40.560Z,0.33
2018-12-04T04:45:28.716Z,0.50
2018-12-04T04:47:57.694Z,0.43
2018-12-04T04:50:26.941Z,0.30
2018-12-04T04:52:55.678Z,0.30
2018-12-04T04:55:24.608Z,0.30
2018-12-04T04:57:53.607Z,0.63
2018-12-04T05:00:22.313Z,0.43
2018-12-04T05:03:28.828Z,0.30
2018-12-04T05:06:01.075Z,0.50
2018-12-04T05:08:35.549Z,0.30
2018-12-04T05:11:11.216Z,0.70
2018-12-04T05:13:41.588Z,0.47
2018-12-04T05:16:16.960Z,0.30
2018-12-04T05:18:49.581Z,0.37
2018-12-04T05:21:34.436Z,0.40
2018-12-04T05:24:16.732Z,0.30
2018-12-04T05:26:45.628Z,0.30
2018-12-04T05:29:14.398Z,0.40
2018-12-04T05:31:44.290Z,0.40
2018-12-04T05:34:16.315Z,0.43
2018-12-04T05:36:48.388Z,0.67
2018-12-04T05:39:21.013Z,0.40
2018-12-04T05:41:49.722Z,0.57
2018-12-04T05:44:18.476Z,0.43
2018-12-04T05:46:47.248Z,0.47
2018-12-04T05:49:19.585Z,0.57
2018-12-04T05:51:48.297Z,0.40
2018-12-04T05:54:17.000Z,0.40
2018-12-04T05:56:45.784Z,0.40
2018-12-04T05:59:27.399Z,0.40
2018-12-04T06:01:56.281Z,0.40
2018-12-04T06:04:28.898Z,0.30
2018-12-04T06:06:57.704Z,0.30
2018-12-04T06:09:26.475Z,0.40
2018-12-04T06:11:55.212Z,0.80
2018-12-04T06:14:26.928Z,0.30
2018-12-04T06:17:01.357Z,0.30
2018-12-04T06:19:30.144Z,0.50
2018-12-04T06:21:58.861Z,0.50
2018-12-04T06:24:31.020Z,0.50
2018-12-04T06:26:59.844Z,0.30
2018-12-04T06:29:28.683Z,0.43
2018-12-04T06:31:57.400Z,0.70
2018-12-04T06:34:29.860Z,0.73
2018-12-04T06:36:58.575Z,0.50
2018-12-04T06:39:27.284Z,0.50
2018-12-04T06:42:16.951Z,0.70
2018-12-04T06:44:47.556Z,0.90
2018-12-04T06:47:16.302Z,0.50
2018-12-04T06:49:45.023Z,0.57
2018-12-04T06:52:13.732Z,0.70
2018-12-04T06:54:45.645Z,0.90
2018-12-04T06:57:18.353Z,0.70
2018-12-04T07:00:00.032Z,0.43
2018-12-04T07:02:34.415Z,0.43
2018-12-04T07:05:07.047Z,0.60
2018-12-04T07:07:48.869Z,0.67
2018-12-04T07:10:18.048Z,0.70
2018-12-04T07:12:46.797Z,0.70
2018-12-04T07:15:15.640Z,0.83
2018-12-04T07:17:56.405Z,1.00
2018-12-04T07:20:28.260Z,1.00
2018-12-04T07:22:57.190Z,0.87
2018-12-04T07:25:34.256Z,0.70
2018-12-04T07:28:03.061Z,0.90
2018-12-04T07:30:31.791Z,0.70
2018-12-04T07:33:06.521Z,0.60
2018-12-04T07:35:35.232Z,0.60
2018-12-04T07:38:04.068Z,0.90
2018-12-04T07:40:32.944Z,1.10
2018-12-04T07:43:04.852Z,0.97
2018-12-04T07:45:33.580Z,1.13
2018-12-04T07:48:02.343Z,1.00
2018-12-04T07:50:32.112Z,1.07
2018-12-04T07:53:00.844Z,1.10
2018-12-04T07:55:30.317Z,1.27
2018-12-04T07:57:59.057Z,1.30
2018-12-04T08:00:34.560Z,1.47
2018-12-04T08:03:09.620Z,1.43
2018-12-04T08:05:44.723Z,1.23
2018-12-04T08:08:23.739Z,1.40
2018-12-04T08:13:52.308Z,0.90
2018-12-04T08:16:28.291Z,1.40
2018-12-04T08:19:07.388Z,0.77
2018-12-04T08:21:39.129Z,0.80
2018-12-04T08:24:14.340Z,1.40
2018-12-04T08:26:43.595Z,0.87
2018-12-04T08:29:16.313Z,1.00
2018-12-04T08:31:44.996Z,1.17
2018-12-04T08:34:20.477Z,1.60
2018-12-04T08:37:01.640Z,1.20
2018-12-04T08:39:30.456Z,1.30
2018-12-04T08:41:59.161Z,1.07
2018-12-04T08:44:31.516Z,1.20
2018-12-04T08:47:12.586Z,1.00
2018-12-04T08:49:50.932Z,0.90
2018-12-04T08:52:23.774Z,1.13
2018-12-04T08:54:55.740Z,0.93
2018-12-04T08:57:27.959Z,1.17
2018-12-04T09:00:08.832Z,0.80
2018-12-04T09:02:39.759Z,1.20
2018-12-04T09:05:11.511Z,1.10
2018-12-04T09:07:41.264Z,1.17
2018-12-04T09:10:25.956Z,1.00
2018-12-04T09:12:54.660Z,1.40
2018-12-04T09:15:28.956Z,1.30
2018-12-04T09:18:05.880Z,1.30
2018-12-04T09:20:38.183Z,1.00
2018-12-04T09:23:07.020Z,0.87
2018-12-04T09:25:42.274Z,1.67
2018-12-04T09:28:14.716Z,1.30
2018-12-04T09:30:43.465Z,1.17
2018-12-04T09:33:25.064Z,1.10
2018-12-04T09:36:04.641Z,1.50
2018-12-04T09:38:39.228Z,1.13
2018-12-04T09:41:08.024Z,1.67
2018-12-04T09:43:36.812Z,1.20
2018-12-04T09:46:11.220Z,1.43
2018-12-04T09:48:39.929Z,1.50
2018-12-04T09:51:14.677Z,1.30
2018-12-04T09:53:52.235Z,1.20
2018-12-04T09:56:26.259Z,1.17
2018-12-04T09:59:01.073Z,1.93
2018-12-04T10:01:39.967Z,1.20
2018-12-04T10:04:08.679Z,1.87
2018-12-04T10:06:37.476Z,1.23
2018-12-04T10:09:08.109Z,1.03
2018-12-04T10:11:42.996Z,1.30
2018-12-04T10:14:15.124Z,1.10
2018-12-04T10:17:01.590Z,1.37
2018-12-04T10:19:30.503Z,1.10
2018-12-04T10:24:54.092Z,1.30
2018-12-04T10:27:28.463Z,1.67
2018-12-04T10:29:57.476Z,1.23
2018-12-04T10:32:26.182Z,1.03
2018-12-04T10:35:00.393Z,0.93
2018-12-04T10:37:35.544Z,1.20
2018-12-04T10:40:11.635Z,0.93
2018-12-04T10:42:40.342Z,0.87
2018-12-04T10:45:12.795Z,1.53
2018-12-04T10:47:41.591Z,1.07
2018-12-04T10:50:10.463Z,1.00
2018-12-04T10:52:41.107Z,0.90
2018-12-04T10:55:13.014Z,1.07
2018-12-04T10:57:44.780Z,1.60
2018-12-04T11:00:30.628Z,1.07
2018-12-04T11:03:04.921Z,1.00
2018-12-04T11:05:45.793Z,0.97
2018-12-04T11:08:26.629Z,1.70
2018-12-04T11:10:55.368Z,1.17
2018-12-04T11:13:24.068Z,1.57
2018-12-04T11:15:57.127Z,1.20
2018-12-04T11:18:26.948Z,2.60
2018-12-04T11:20:55.649Z,1.30
2018-12-04T11:23:24.492Z,1.70
2018-12-04T11:25:59.532Z,1.33
2018-12-04T11:28:37.091Z,1.10
2018-12-04T11:31:05.804Z,1.37
2018-12-04T11:33:34.517Z,1.40
2018-12-04T11:36:09.226Z,1.20
2018-12-04T11:38:41.490Z,1.30
2018-12-04T11:41:13.320Z,1.30
2018-12-04T11:43:42.104Z,1.50
2018-12-04T11:46:14.623Z,0.93
2018-12-04T11:48:43.316Z,1.63
2018-12-04T11:51:13.720Z,1.63
2018-12-04T11:53:42.529Z,1.33
2018-12-04T11:56:14.915Z,1.70
2018-12-04T11:58:43.720Z,1.47
2018-12-04T12:01:16.667Z,1.00
2018-12-04T12:03:45.412Z,1.37
2018-12-04T12:06:18.088Z,1.87
2018-12-04T12:08:46.829Z,1.27
2018-12-04T12:11:15.665Z,1.73
2018-12-04T12:16:37.553Z,1.57
2018-12-04T12:19:06.344Z,1.50
2018-12-04T12:21:35.171Z,1.30
2018-12-04T12:26:56.711Z,1.37
2018-12-04T12:29:28.536Z,1.50
2018-12-04T12:32:02.736Z,1.20
2018-12-04T12:34:37.220Z,1.40
2018-12-04T12:37:05.973Z,1.43
2018-12-04T12:39:34.692Z,1.20
2018-12-04T12:42:03.534Z,1.10
2018-12-04T12:44:38.477Z,0.90
2018-12-04T12:47:16.943Z,1.33
2018-12-04T12:49:45.731Z,0.83
2018-12-04T12:52:35.527Z,1.37
2018-12-04T12:55:14.116Z,0.87
2018-12-04T12:57:42.973Z,1.10
2018-12-04T13:00:11.717Z,0.70
2018-12-04T13:02:41.000Z,1.10
2018-12-04T13:05:13.516Z,0.90
2018-12-04T13:07:47.965Z,1.07
2018-12-04T13:10:16.743Z,1.60
2018-12-04T13:12:45.496Z,1.13
2018-12-04T13:15:17.560Z,1.30
2018-12-04T13:17:46.331Z,1.03
2018-12-04T13:20:15.015Z,0.93
2018-12-04T13:22:47.815Z,1.00
2018-12-04T13:25:19.714Z,1.03
2018-12-04T13:27:58.532Z,1.03
2018-12-04T13:30:27.312Z,1.10
2018-12-04T13:32:56.020Z,1.10
2018-12-04T13:35:30.547Z,1.40
2018-12-04T13:37:59.484Z,1.53
2018-12-04T13:40:28.219Z,0.80
2018-12-04T13:43:00.260Z,0.70
2018-12-04T13:45:34.821Z,1.17
2018-12-04T13:48:03.620Z,0.87
2018-12-04T13:50:32.328Z,1.27
2018-12-04T13:53:01.099Z,1.00
2018-12-04T13:55:33.433Z,1.10
2018-12-04T13:58:02.176Z,1.17
2018-12-04T14:00:30.947Z,1.10
2018-12-04T14:02:59.777Z,1.30
2018-12-04T14:05:32.528Z,0.93
2018-12-04T14:08:05.282Z,1.17
2018-12-04T14:10:40.807Z,1.00
2018-12-04T14:13:09.683Z,1.27
2018-12-04T14:15:41.669Z,1.30
2018-12-04T14:18:10.419Z,1.00
2018-12-04T14:20:52.568Z,0.80
2018-12-04T14:23:21.284Z,1.33
2018-12-04T14:25:53.256Z,1.10
2018-12-04T14:28:21.962Z,1.30
2018-12-04T14:30:50.767Z,0.90
2018-12-04T14:33:27.156Z,1.27
2018-12-04T14:38:56.328Z,1.50
2018-12-04T14:41:25.032Z,1.10
2018-12-04T14:43:53.781Z,0.90
2018-12-04T14:46:25.599Z,1.10
2018-12-04T14:48:54.453Z,1.00
2018-12-04T14:51:23.340Z,1.10
2018-12-04T14:53:52.051Z,1.27
2018-12-04T14:56:30.558Z,1.40
2018-12-04T14:59:00.311Z,1.57
2018-12-04T15:01:29.087Z,1.07
2018-12-04T15:03:57.859Z,1.10
2018-12-04T15:06:36.503Z,1.40
2018-12-04T15:09:09.153Z,1.20
2018-12-04T15:11:45.369Z,1.00
2018-12-04T15:14:14.076Z,0.90
2018-12-04T15:16:46.349Z,2.00
2018-12-04T15:19:19.963Z,1.33
2018-12-04T15:22:00.904Z,1.13
2018-12-04T15:24:29.685Z,1.07
2018-12-04T15:27:02.205Z,1.43
2018-12-04T15:29:51.757Z,1.10
2018-12-04T15:32:20.517Z,1.20
2018-12-04T15:34:54.767Z,0.90
2018-12-04T15:37:23.537Z,1.00
2018-12-04T15:39:52.966Z,1.40
2018-12-04T15:42:28.096Z,1.20
2018-12-04T15:45:08.758Z,1.20
2018-12-04T15:47:37.602Z,1.80
2018-12-04T15:50:07.428Z,1.20
2018-12-04T15:52:47.953Z,1.70
2018-12-04T15:55:19.804Z,1.90
2018-12-04T15:57:55.076Z,2.43
2018-12-04T16:00:23.899Z,3.53
2018-12-04T16:02:52.679Z,4.33
2018-12-04T16:05:24.480Z,6.17
2018-12-04T16:07:53.220Z,6.57
2018-12-04T16:10:22.003Z,4.60
2018-12-04T16:12:50.760Z,4.33
2018-12-04T16:15:22.984Z,4.97
2018-12-04T16:17:51.730Z,4.40
2018-12-04T16:20:20.422Z,3.97
2018-12-04T16:22:49.212Z,5.53
2018-12-04T16:25:21.810Z,4.60
2018-12-04T16:27:50.515Z,6.30
2018-12-04T16:30:19.396Z,6.93
2018-12-04T16:32:48.159Z,7.60
2018-12-04T16:35:20.339Z,8.37
2018-12-04T16:37:49.032Z,5.43
2018-12-04T16:40:17.730Z,4.37
2018-12-04T16:42:46.436Z,3.57
2018-12-04T16:45:19.015Z,2.50
2018-12-04T16:47:47.769Z,2.10
2018-12-04T16:50:16.595Z,1.90
2018-12-04T16:52:45.295Z,1.83
2018-12-04T16:55:18.764Z,2.00
2018-12-04T16:57:47.527Z,1.70
2018-12-04T17:00:21.816Z,2.30
2018-12-04T17:02:50.514Z,1.90
2018-12-04T17:05:22.524Z,1.70
2018-12-04T17:08:06.800Z,1.33
2018-12-04T17:10:35.564Z,1.33
2018-12-04T17:13:04.332Z,1.10
2018-12-04T17:15:36.848Z,1.57
2018-12-04T17:18:05.607Z,2.70
2018-12-04T17:20:36.320Z,1.90
2018-12-04T17:23:05.108Z,1.43
2018-12-04T17:25:37.500Z,3.00
2018-12-04T17:28:06.207Z,2.80
2018-12-04T17:30:34.971Z,2.83
2018-12-04T17:33:24.536Z,2.10
2018-12-04T17:35:56.803Z,1.90
2018-12-04T17:38:25.521Z,2.93
2018-12-04T17:40:54.208Z,2.33
2018-12-04T17:43:30.549Z,2.07
2018-12-04T17:46:11.292Z,3.40
2018-12-04T17:48:40.200Z,2.30
2018-12-04T17:51:15.273Z,2.40
2018-12-04T17:53:44.063Z,2.17
2018-12-04T17:56:16.191Z,2.23
2018-12-04T17:58:44.884Z,2.60
2018-12-04T18:01:13.737Z,2.43
2018-12-04T18:03:42.695Z,3.63
2018-12-04T18:06:23.960Z,7.53
2018-12-04T18:08:52.676Z,7.93
2018-12-04T18:11:21.443Z,6.77
2018-12-04T18:13:50.210Z,5.23
2018-12-04T18:16:22.489Z,4.77
2018-12-04T18:18:51.207Z,2.73
2018-12-04T18:21:19.963Z,2.20
2018-12-04T18:23:48.675Z,1.80
2018-12-04T18:26:20.480Z,1.60
2018-12-04T18:28:49.188Z,2.37
2018-12-04T18:31:17.896Z,2.70
2018-12-04T18:33:50.780Z,2.53
2018-12-04T18:36:23.140Z,2.77
2018-12-04T18:38:53.156Z,2.93
2018-12-04T18:41:32.247Z,2.40
2018-12-04T18:44:01.527Z,1.73
2018-12-04T18:46:33.345Z,1.80
2018-12-04T18:49:02.309Z,1.70
2018-12-04T18:51:34.852Z,2.70
2018-12-04T18:54:09.581Z,2.83
2018-12-04T18:56:41.679Z,3.63
2018-12-04T18:59:10.383Z,2.70
2018-12-04T19:01:39.165Z,2.43
2018-12-04T19:04:08.880Z,1.50
2018-12-04T19:06:40.942Z,1.47
2018-12-04T19:09:09.839Z,2.90
2018-12-04T19:11:38.985Z,2.37
2018-12-04T19:14:11.059Z,2.17
2018-12-04T19:16:44.804Z,2.10
2018-12-04T19:19:13.608Z,2.20
2018-12-04T19:21:48.904Z,2.47
2018-12-04T19:24:17.632Z,2.30
2018-12-04T19:26:49.337Z,2.83
2018-12-04T19:29:18.171Z,3.27
2018-12-04T19:31:46.895Z,2.40
2018-12-04T19:34:15.706Z,2.43
2018-12-04T19:36:50.201Z,2.53
2018-12-04T19:39:18.929Z,2.07
2018-12-04T19:41:47.640Z,2.47
2018-12-04T19:44:16.385Z,1.70
2018-12-04T19:46:48.120Z,1.73
2018-12-04T19:49:18.933Z,2.87
2018-12-04T19:51:47.783Z,2.40
2018-12-04T19:54:16.477Z,2.77
2018-12-04T19:56:49.040Z,1.73
2018-12-04T19:59:23.360Z,3.67
2018-12-04T20:01:58.680Z,3.37
2018-12-04T20:04:27.469Z,3.00
2018-12-04T20:06:59.828Z,2.60
2018-12-04T20:09:28.648Z,2.23
2018-12-04T20:11:57.449Z,2.43
2018-12-04T20:17:22.926Z,2.40
2018-12-04T20:19:51.794Z,2.40
2018-12-04T20:22:20.700Z,2.70
2018-12-04T20:24:49.407Z,2.73
2018-12-04T20:27:19.164Z,3.23
2018-12-04T20:29:47.932Z,3.90
2018-12-04T20:32:16.907Z,3.40
2018-12-04T20:34:45.610Z,3.10
2018-12-04T20:37:14.452Z,4.10
2018-12-04T20:39:43.153Z,3.00
2018-12-04T20:42:11.872Z,3.17
2018-12-04T20:44:40.620Z,3.63
2018-12-04T20:47:14.824Z,3.83
2018-12-04T20:49:43.558Z,4.03
2018-12-04T20:52:12.255Z,3.37
2018-12-04T20:54:41.014Z,3.60
2018-12-04T20:57:13.639Z,3.90
2018-12-04T20:59:42.457Z,4.33
2018-12-04T21:02:17.481Z,4.63
2018-12-04T21:04:49.660Z,4.90
2018-12-04T21:07:18.363Z,5.57
2018-12-04T21:09:47.075Z,6.23
2018-12-04T21:12:15.799Z,6.20
2018-12-04T21:14:44.524Z,6.00
2018-12-04T21:17:13.550Z,7.03
2018-12-04T21:19:47.909Z,8.07
2018-12-04T21:22:18.015Z,7.33
2018-12-04T21:24:46.827Z,5.63
2018-12-04T21:27:20.978Z,6.10
2018-12-04T21:30:07.496Z,6.70
2018-12-04T21:32:41.700Z,6.07
2018-12-04T21:35:19.785Z,5.77
2018-12-04T21:37:54.024Z,4.70
2018-12-04T21:40:29.606Z,4.07
2018-12-04T21:43:15.648Z,3.33
2018-12-04T21:45:53.264Z,2.57
2018-12-04T21:48:26.272Z,2.10
2018-12-04T21:50:55.116Z,2.87
2018-12-04T21:53:23.902Z,3.60
2018-12-04T21:55:56.610Z,3.80
2018-12-04T21:58:25.349Z,2.63
2018-12-04T22:00:54.401Z,2.53
2018-12-04T22:03:23.112Z,2.97
2018-12-04T22:05:55.396Z,2.93
2018-12-04T22:08:24.080Z,3.27
2018-12-04T22:10:52.834Z,2.40
2018-12-04T22:13:24.936Z,2.67
2018-12-04T22:15:57.667Z,2.33
2018-12-04T22:18:31.924Z,3.00
2018-12-04T22:21:00.727Z,3.20
2018-12-04T22:23:29.439Z,2.83
2018-12-04T22:26:01.640Z,2.43
2018-12-04T22:28:30.377Z,2.20
2018-12-04T22:30:59.191Z,2.40
2018-12-04T22:33:27.898Z,2.27
2018-12-04T22:35:59.957Z,1.67
2018-12-04T22:38:28.680Z,1.60
2018-12-04T22:40:57.427Z,1.57
2018-12-04T22:43:32.144Z,1.90
2018-12-04T22:46:04.996Z,1.73
2018-12-04T22:48:33.730Z,2.10
2018-12-04T22:51:02.436Z,2.07
2018-12-04T22:53:31.159Z,1.60
2018-12-04T22:56:05.464Z,1.63
2018-12-04T22:58:34.413Z,1.93
2018-12-04T23:01:03.523Z,1.50
2018-12-04T23:03:32.204Z,1.77
2018-12-04T23:06:04.240Z,1.97
2018-12-04T23:08:32.965Z,3.20
2018-12-04T23:11:16.364Z,1.90
2018-12-04T23:13:45.084Z,3.47
2018-12-04T23:16:17.496Z,4.27
2018-12-04T23:18:46.203Z,3.90
2018-12-04T23:21:14.952Z,3.23
2018-12-04T23:23:43.740Z,3.33
2018-12-04T23:26:15.916Z,3.03
2018-12-04T23:28:53.235Z,3.07
2018-12-04T23:31:21.991Z,3.63
2018-12-04T23:33:50.747Z,3.50
2018-12-04T23:36:22.684Z,2.90
2018-12-04T23:38:51.386Z,3.13
2018-12-04T23:41:20.092Z,2.60
2018-12-04T23:43:50.368Z,3.03
2018-12-04T23:46:22.259Z,2.93
2018-12-04T23:48:50.965Z,3.60
2018-12-04T23:51:19.716Z,3.20
2018-12-04T23:54:04.920Z,2.77
2018-12-04T23:56:36.951Z,4.03
2018-12-04T23:59:05.793Z,6.43
